Time;durP1;ratioP1;P1;durP2;ratioP2;P2;SDS_P1;SDS_P2;PMS_P1;PMS_P2;Temp;Humidity;BMP_temperature;BMP_pressure;BME280_temperature;BME280_humidity;BME280_pressure;Samples;Min_cycle;Max_cycle;Signal;HPM_P1;HPM_P2
2022/05/14 00:00:25;;;;;;;5.87;2.00;;;10.90;99.90;;;;;;5056742;28;20429;-95
2022/05/14 00:02:50;;;;;;;4.27;2.50;;;11.00;99.90;;;;;;5056203;28;20427;-87
2022/05/14 00:05:20;;;;;;;7.40;3.00;;;10.90;99.90;;;;;;5056586;28;20422;-95
2022/05/14 00:07:50;;;;;;;5.13;2.17;;;10.90;99.90;;;;;;5056471;28;20205;-92
2022/05/14 00:10:18;;;;;;;6.23;2.50;;;11.00;99.90;;;;;;5057091;28;20455;-96
2022/05/14 00:15:30;;;;;;;6.03;2.07;;;11.10;99.90;;;;;;5057552;28;20470;-94
2022/05/14 00:17:55;;;;;;;8.40;2.50;;;11.10;99.90;;;;;;5056934;28;20758;-94
2022/05/14 00:20:23;;;;;;;5.27;2.00;;;11.20;99.90;;;;;;5057443;28;20428;-94
2022/05/14 00:22:50;;;;;;;7.43;2.73;;;11.10;99.90;;;;;;5057783;28;20616;-86
2022/05/14 00:25:19;;;;;;;5.63;2.60;;;11.20;99.90;;;;;;5060602;28;20420;-92
2022/05/14 00:27:46;;;;;;;6.10;2.67;;;11.20;99.90;;;;;;5057399;28;20425;-92
2022/05/14 00:30:13;;;;;;;6.60;2.10;;;11.10;99.90;;;;;;5058661;28;20492;-91
2022/05/14 00:32:42;;;;;;;3.57;1.67;;;11.20;99.90;;;;;;5038069;28;20453;-90
2022/05/14 00:35:10;;;;;;;3.30;1.30;;;11.30;99.90;;;;;;5037787;28;20479;-91
2022/05/14 00:37:36;;;;;;;7.43;2.00;;;11.20;99.90;;;;;;5038105;28;20416;-91
2022/05/14 00:40:13;;;;;;;5.03;2.50;;;11.30;99.90;;;;;;5055620;28;20417;-86
2022/05/14 00:42:39;;;;;;;3.63;2.17;;;11.30;99.90;;;;;;5037966;28;20411;-88
2022/05/14 00:45:09;;;;;;;10.20;2.30;;;11.30;99.90;;;;;;5037582;28;20852;-91
2022/05/14 00:47:37;;;;;;;7.07;2.13;;;11.30;99.90;;;;;;5037427;28;20655;-91
2022/05/14 00:50:26;;;;;;;7.13;2.70;;;11.40;99.90;;;;;;5037696;28;20526;-87
2022/05/14 00:53:00;;;;;;;4.60;2.20;;;11.40;99.90;;;;;;5037856;28;20419;-91
2022/05/14 00:55:27;;;;;;;7.30;2.43;;;11.40;99.90;;;;;;5037531;28;20474;-88
2022/05/14 00:57:55;;;;;;;9.60;3.20;;;11.40;99.90;;;;;;5055363;28;20932;-89
2022/05/14 01:00:23;;;;;;;7.20;2.17;;;11.50;99.90;;;;;;5055107;28;20426;-91
2022/05/14 01:02:49;;;;;;;8.07;3.03;;;11.50;99.90;;;;;;5054472;28;21016;-92
2022/05/14 01:05:17;;;;;;;5.67;2.70;;;11.40;99.90;;;;;;5054422;28;20427;-85
2022/05/14 01:07:43;;;;;;;10.13;2.73;;;11.40;99.90;;;;;;5054760;28;20229;-92
2022/05/14 01:10:11;;;;;;;10.70;2.70;;;11.40;99.90;;;;;;5037332;28;20912;-91
2022/05/14 01:12:41;;;;;;;6.30;2.50;;;11.50;99.90;;;;;;5054864;28;20502;-86
2022/05/14 01:15:24;;;;;;;7.03;2.50;;;11.50;99.90;;;;;;5054829;28;20508;-92
2022/05/14 01:17:49;;;;;;;6.47;2.43;;;11.50;99.90;;;;;;5036815;28;20429;-87
2022/05/14 01:20:17;;;;;;;7.87;3.00;;;11.60;99.90;;;;;;5054575;28;20904;-86
2022/05/14 01:23:03;;;;;;;4.70;2.90;;;11.50;99.90;;;;;;5054827;28;20198;-86
2022/05/14 01:28:32;;;;;;;12.60;3.57;;;11.50;99.90;;;;;;5054672;28;20946;-86
2022/05/14 01:31:01;;;;;;;5.90;2.60;;;11.50;99.90;;;;;;5054470;28;20418;-90
2022/05/14 01:33:27;;;;;;;11.03;2.80;;;11.50;99.90;;;;;;5054022;28;20507;-90
2022/05/14 01:35:53;;;;;;;8.30;3.07;;;11.40;99.90;;;;;;5052825;28;20475;-89
2022/05/14 01:38:23;;;;;;;4.30;2.57;;;11.30;99.90;;;;;;5054441;28;20501;-90
2022/05/14 01:40:49;;;;;;;5.47;2.37;;;11.40;99.90;;;;;;5056411;28;20466;-88
2022/05/14 01:43:15;;;;;;;9.63;3.23;;;11.30;99.90;;;;;;5056049;28;20483;-84
2022/05/14 01:45:41;;;;;;;6.13;3.13;;;11.40;99.90;;;;;;5074021;28;20891;-86
2022/05/14 01:48:07;;;;;;;6.00;2.80;;;11.40;99.90;;;;;;5073788;28;20440;-88
2022/05/14 01:50:36;;;;;;;6.40;2.70;;;11.30;99.90;;;;;;5073948;28;20582;-91
2022/05/14 01:53:02;;;;;;;7.20;2.70;;;11.30;99.90;;;;;;5073694;28;20408;-87
2022/05/14 01:55:27;;;;;;;5.83;2.63;;;11.40;99.90;;;;;;5073679;28;20474;-90
2022/05/14 01:57:53;;;;;;;9.73;3.43;;;11.40;99.90;;;;;;5073238;28;20166;-87
2022/05/14 02:00:21;;;;;;;9.70;3.33;;;11.40;99.90;;;;;;5073604;28;20265;-85
2022/05/14 02:02:47;;;;;;;7.73;2.83;;;11.50;99.90;;;;;;5073714;28;20168;-93
2022/05/14 02:05:13;;;;;;;10.43;2.57;;;11.50;99.90;;;;;;5056050;28;20505;-93
2022/05/14 02:07:41;;;;;;;4.60;2.90;;;11.60;99.90;;;;;;5074181;28;20471;-90
2022/05/14 02:10:07;;;;;;;8.63;3.43;;;11.60;99.90;;;;;;5056525;28;20463;-91
2022/05/14 02:12:34;;;;;;;12.20;3.90;;;11.60;99.90;;;;;;5074113;28;20450;-90
2022/05/14 02:15:00;;;;;;;12.03;3.23;;;11.60;99.90;;;;;;5073934;28;20470;-93
2022/05/14 02:17:25;;;;;;;9.70;2.97;;;11.60;99.90;;;;;;5073918;28;20421;-95
2022/05/14 02:19:54;;;;;;;8.80;2.63;;;11.60;99.90;;;;;;5074119;28;20181;-91
2022/05/14 02:22:19;;;;;;;11.37;3.57;;;11.60;99.90;;;;;;5073761;28;20570;-93
2022/05/14 02:24:44;;;;;;;7.33;3.10;;;11.60;99.90;;;;;;5073013;28;20459;-86
2022/05/14 02:27:10;;;;;;;9.13;3.07;;;11.50;99.90;;;;;;5055367;28;20590;-91
2022/05/14 02:29:51;;;;;;;9.67;3.73;;;11.40;99.90;;;;;;5055703;28;20205;-91
2022/05/14 02:32:21;;;;;;;7.17;3.10;;;11.40;99.90;;;;;;5055490;28;20170;-94
2022/05/14 02:34:47;;;;;;;6.93;2.73;;;11.40;99.90;;;;;;5073504;28;20456;-94
2022/05/14 02:37:14;;;;;;;10.17;3.47;;;11.30;99.90;;;;;;5065537;28;20526;-93
2022/05/14 02:39:40;;;;;;;4.87;2.40;;;11.20;99.90;;;;;;5053448;28;20169;-85
2022/05/14 02:42:12;;;;;;;9.23;3.53;;;11.20;99.90;;;;;;5052523;28;20622;-88
2022/05/14 02:44:37;;;;;;;6.07;2.53;;;11.20;99.90;;;;;;5053102;28;20253;-95
2022/05/14 02:47:03;;;;;;;8.27;3.50;;;11.10;99.90;;;;;;5053540;28;20418;-93
2022/05/14 02:49:29;;;;;;;7.40;3.93;;;11.20;99.90;;;;;;5053326;28;20226;-91
2022/05/14 02:51:54;;;;;;;8.23;4.00;;;11.20;99.90;;;;;;5035990;28;20338;-86
2022/05/14 02:54:20;;;;;;;9.90;3.20;;;11.30;99.90;;;;;;5035636;28;20261;-89
2022/05/14 02:56:46;;;;;;;6.03;3.80;;;11.30;99.90;;;;;;5035686;28;20202;-85
2022/05/14 02:59:12;;;;;;;5.97;3.13;;;11.30;99.90;;;;;;5053396;28;20588;-94
2022/05/14 03:01:47;;;;;;;10.27;4.10;;;11.20;99.90;;;;;;5035573;28;20170;-94
2022/05/14 03:04:24;;;;;;;8.40;3.40;;;11.10;99.90;;;;;;5052849;28;20413;-94
2022/05/14 03:06:52;;;;;;;7.37;3.30;;;11.10;99.90;;;;;;5053439;28;20398;-87
2022/05/14 03:09:18;;;;;;;7.67;3.27;;;11.20;99.90;;;;;;5053549;28;20937;-95
2022/05/14 03:11:43;;;;;;;7.83;4.30;;;11.30;99.90;;;;;;5053331;28;20417;-94
2022/05/14 03:14:13;;;;;;;8.80;3.57;;;11.30;99.90;;;;;;5035350;28;20195;-85
2022/05/14 03:16:40;;;;;;;10.40;3.63;;;11.30;99.90;;;;;;5035475;28;20178;-94
2022/05/14 03:19:05;;;;;;;7.40;2.97;;;11.40;99.90;;;;;;5052981;28;20745;-90
2022/05/14 03:21:37;;;;;;;5.17;2.53;;;11.40;99.90;;;;;;5035542;28;20421;-85
2022/05/14 03:24:04;;;;;;;8.07;3.23;;;11.30;99.90;;;;;;5053092;28;20183;-92
2022/05/14 03:26:29;;;;;;;8.27;4.13;;;11.30;99.90;;;;;;5035516;28;20421;-88
2022/05/14 03:28:58;;;;;;;9.97;3.20;;;11.30;99.90;;;;;;5057164;28;20995;-86
2022/05/14 03:31:23;;;;;;;8.83;3.80;;;11.30;99.90;;;;;;5057222;28;20259;-92
2022/05/14 03:33:49;;;;;;;7.63;2.73;;;11.20;99.90;;;;;;5056657;28;20445;-94
2022/05/14 03:36:15;;;;;;;7.77;2.90;;;11.20;99.90;;;;;;5056910;28;20200;-85
2022/05/14 03:38:41;;;;;;;9.63;4.10;;;11.20;99.90;;;;;;5056581;28;20444;-93
2022/05/14 03:41:07;;;;;;;7.23;3.50;;;11.10;99.90;;;;;;5039106;28;20233;-92
2022/05/14 03:43:33;;;;;;;6.97;4.07;;;11.10;99.90;;;;;;5038483;28;20231;-90
2022/05/14 03:45:59;;;;;;;5.17;2.63;;;11.10;99.90;;;;;;5039199;28;20863;-84
2022/05/14 03:48:25;;;;;;;10.53;3.67;;;11.10;99.90;;;;;;5038507;28;20458;-83
2022/05/14 03:50:51;;;;;;;10.80;5.40;;;11.00;99.90;;;;;;5056780;28;20413;-86
2022/05/14 03:53:16;;;;;;;6.23;2.87;;;11.00;99.90;;;;;;5038788;28;20187;-84
2022/05/14 03:55:42;;;;;;;11.33;5.50;;;11.00;99.90;;;;;;5056533;28;20726;-85
2022/05/14 03:58:07;;;;;;;7.03;3.83;;;11.00;99.90;;;;;;5038794;28;20210;-91
2022/05/14 04:00:34;;;;;;;8.63;3.97;;;11.00;99.90;;;;;;5056636;28;20180;-87
2022/05/14 04:02:59;;;;;;;9.23;4.63;;;11.00;99.90;;;;;;5055907;28;20198;-85
2022/05/14 04:05:25;;;;;;;6.40;3.33;;;11.00;99.90;;;;;;5038582;28;20917;-92
2022/05/14 04:07:50;;;;;;;8.10;3.10;;;11.00;99.90;;;;;;5038564;28;20171;-90
2022/05/14 04:10:16;;;;;;;9.20;3.43;;;10.90;99.90;;;;;;5038678;28;20212;-85
2022/05/14 04:12:42;;;;;;;9.43;4.67;;;11.00;99.90;;;;;;5055607;28;20179;-86
2022/05/14 04:15:09;;;;;;;14.00;4.13;;;11.00;99.90;;;;;;5055841;28;20207;-93
2022/05/14 04:17:35;;;;;;;10.53;3.40;;;11.10;99.90;;;;;;5055802;28;20530;-85
2022/05/14 04:20:01;;;;;;;12.10;4.90;;;11.10;99.90;;;;;;5038200;28;20452;-87
2022/05/14 04:22:26;;;;;;;9.00;4.13;;;11.20;99.90;;;;;;5037844;28;20263;-87
2022/05/14 04:24:52;;;;;;;11.70;4.20;;;11.30;99.90;;;;;;5038367;28;20178;-94
2022/05/14 04:27:17;;;;;;;9.10;4.20;;;11.30;99.90;;;;;;5056322;28;20224;-93
2022/05/14 04:29:43;;;;;;;17.73;5.00;;;11.40;99.90;;;;;;5055619;28;20190;-93
2022/05/14 04:32:08;;;;;;;13.60;5.00;;;11.50;99.90;;;;;;5055479;28;20168;-94
2022/05/14 04:34:34;;;;;;;8.90;4.13;;;11.60;99.90;;;;;;5037150;28;20215;-86
2022/05/14 04:37:05;;;;;;;12.53;4.03;;;11.60;99.90;;;;;;5037778;28;20262;-86
2022/05/14 04:39:34;;;;;;;8.43;3.83;;;11.70;99.90;;;;;;5055423;28;20172;-85
2022/05/14 04:42:05;;;;;;;7.87;4.43;;;11.90;99.90;;;;;;5037916;28;20425;-86
2022/05/14 04:44:32;;;;;;;8.37;4.10;;;12.10;99.90;;;;;;5037711;28;20566;-92
2022/05/14 04:46:58;;;;;;;11.43;4.07;;;12.20;99.90;;;;;;5037474;28;20406;-94
2022/05/14 04:49:24;;;;;;;10.57;2.90;;;12.30;99.90;;;;;;5037505;28;20537;-86
2022/05/14 04:51:50;;;;;;;8.80;3.50;;;12.30;99.90;;;;;;5037402;28;20506;-86
2022/05/14 04:54:15;;;;;;;10.07;4.90;;;12.30;99.90;;;;;;5037348;28;20249;-85
2022/05/14 04:56:41;;;;;;;10.40;4.40;;;12.30;99.90;;;;;;5037590;28;20168;-85
2022/05/14 04:59:07;;;;;;;10.83;3.47;;;12.40;99.90;;;;;;5055004;28;20179;-89
2022/05/14 05:01:33;;;;;;;11.23;3.37;;;12.40;99.90;;;;;;5055084;28;20413;-89
2022/05/14 05:04:01;;;;;;;11.27;3.40;;;12.50;99.90;;;;;;5037393;28;20176;-87
2022/05/14 05:06:28;;;;;;;7.53;3.47;;;12.50;99.90;;;;;;5054890;28;20165;-88
2022/05/14 05:08:54;;;;;;;7.93;3.70;;;12.50;99.90;;;;;;5055051;28;20925;-85
2022/05/14 05:11:23;;;;;;;12.30;3.57;;;12.50;99.90;;;;;;5036721;28;20406;-87
2022/05/14 05:13:49;;;;;;;14.63;4.23;;;12.60;99.90;;;;;;5054463;28;20411;-86
2022/05/14 05:16:15;;;;;;;12.03;4.27;;;12.60;99.90;;;;;;5054484;28;20420;-87
2022/05/14 05:18:40;;;;;;;7.53;3.33;;;12.60;99.90;;;;;;5054095;28;20422;-87
2022/05/14 05:21:07;;;;;;;10.87;3.90;;;12.70;99.90;;;;;;5036527;28;20643;-86
2022/05/14 05:23:33;;;;;;;11.47;4.27;;;12.70;99.90;;;;;;5054201;28;20193;-86
2022/05/14 05:25:59;;;;;;;7.63;3.60;;;12.70;99.90;;;;;;5054397;28;20419;-87
2022/05/14 05:28:26;;;;;;;13.50;3.90;;;12.80;99.90;;;;;;5036371;28;20474;-87
2022/05/14 05:30:53;;;;;;;9.57;3.60;;;12.80;99.90;;;;;;5054055;28;20172;-87
2022/05/14 05:33:24;;;;;;;8.60;3.80;;;12.80;99.90;;;;;;5035855;28;20473;-86
2022/05/14 05:35:50;;;;;;;11.80;3.93;;;12.80;99.90;;;;;;5036157;28;20471;-86
2022/05/14 05:38:17;;;;;;;8.13;3.30;;;12.70;99.90;;;;;;5053959;28;20826;-87
2022/05/14 05:40:43;;;;;;;9.70;4.33;;;12.70;99.90;;;;;;5035820;28;20420;-87
2022/05/14 05:43:10;;;;;;;13.17;3.33;;;12.80;99.90;;;;;;5053491;28;20451;-86
2022/05/14 05:45:39;;;;;;;8.03;6.23;;;12.80;99.90;;;;;;5036124;28;20416;-87
2022/05/14 05:48:05;;;;;;;18.80;5.07;;;12.70;99.90;;;;;;5035690;28;20438;-87
2022/05/14 05:50:31;;;;;;;15.23;4.60;;;12.80;99.90;;;;;;5035391;28;20420;-86
2022/05/14 05:52:57;;;;;;;14.70;4.23;;;12.80;99.90;;;;;;5036041;28;20773;-86
2022/05/14 05:58:07;;;;;;;14.80;4.90;;;12.70;99.90;;;;;;5053838;28;20635;-92
2022/05/14 06:00:33;;;;;;;13.70;3.97;;;12.70;99.90;;;;;;5035938;28;20409;-85
2022/05/14 06:02:59;;;;;;;12.30;5.17;;;12.70;99.90;;;;;;5035678;28;20918;-85
2022/05/14 06:05:26;;;;;;;16.07;5.30;;;12.80;99.90;;;;;;5053724;28;20620;-87
2022/05/14 06:07:53;;;;;;;9.53;4.13;;;12.80;99.90;;;;;;5035802;28;20760;-85
2022/05/14 06:10:20;;;;;;;14.00;5.10;;;12.80;99.90;;;;;;5053670;28;20492;-87
2022/05/14 06:12:49;;;;;;;14.07;3.77;;;12.90;99.90;;;;;;5035840;28;20454;-86
2022/05/14 06:15:17;;;;;;;15.07;4.73;;;13.00;99.90;;;;;;5035638;28;20482;-86
2022/05/14 06:17:43;;;;;;;15.77;4.47;;;13.10;99.90;;;;;;5053214;28;20421;-86
2022/05/14 06:20:11;;;;;;;10.63;3.93;;;13.20;99.90;;;;;;5053207;28;20891;-85
2022/05/14 06:22:43;;;;;;;12.43;3.30;;;13.30;99.90;;;;;;5035458;28;20218;-89
2022/05/14 06:25:09;;;;;;;13.90;3.20;;;14.10;99.90;;;;;;5035945;28;20477;-92
2022/05/14 06:27:39;;;;;;;10.20;2.80;;;15.10;99.90;;;;;;5053516;28;20400;-88
2022/05/14 06:30:05;;;;;;;11.57;3.20;;;15.60;99.90;;;;;;5053605;28;20412;-90
2022/05/14 06:32:30;;;;;;;9.47;4.17;;;15.80;99.90;;;;;;5053317;28;20409;-90
2022/05/14 06:34:56;;;;;;;9.50;3.67;;;15.70;1.00;;;;;;5053720;28;20467;-88
2022/05/14 06:37:21;;;;;;;11.43;4.03;;;15.70;1.00;;;;;;5053959;28;20171;-90
2022/05/14 06:39:49;;;;;;;11.97;3.53;;;15.80;1.00;;;;;;5053780;28;20266;-86
2022/05/14 06:42:16;;;;;;;10.70;4.17;;;16.10;1.00;;;;;;5039231;28;20183;-89
2022/05/14 06:44:42;;;;;;;9.17;3.07;;;16.40;1.00;;;;;;5036613;28;20484;-90
2022/05/14 06:47:07;;;;;;;10.50;3.60;;;16.50;99.90;;;;;;5034606;28;20780;-88
2022/05/14 06:49:33;;;;;;;9.97;3.90;;;16.50;99.90;;;;;;5036061;28;20201;-87
2022/05/14 06:52:03;;;;;;;13.17;4.17;;;16.00;99.90;;;;;;5053760;28;20182;-87
2022/05/14 06:54:31;;;;;;;10.47;3.47;;;16.70;1.00;;;;;;5052939;28;20203;-86
2022/05/14 06:56:57;;;;;;;12.97;3.77;;;16.20;1.00;;;;;;5035150;28;20459;-87
2022/05/14 06:59:23;;;;;;;12.60;4.10;;;15.70;26.50;;;;;;5053210;28;20837;-87
2022/05/14 07:01:48;;;;;;;9.00;3.70;;;16.40;99.90;;;;;;5053550;28;20464;-88
2022/05/14 07:07:03;;;;;;;11.60;4.03;;;17.90;1.00;;;;;;5067474;28;20193;-87
2022/05/14 07:09:32;;;;;;;10.70;2.63;;;18.90;1.00;;;;;;5057553;28;20765;-89
2022/05/14 07:12:03;;;;;;;13.80;4.63;;;19.60;99.90;;;;;;5039681;28;20942;-88
2022/05/14 07:14:30;;;;;;;12.57;3.63;;;19.60;99.90;;;;;;5057545;28;20802;-91
2022/05/14 07:16:56;;;;;;;13.20;3.20;;;18.40;99.90;;;;;;5057508;28;20416;-86
2022/05/14 07:19:22;;;;;;;12.10;4.33;;;20.30;99.90;;;;;;5058237;28;20407;-92
2022/05/14 07:21:49;;;;;;;7.30;3.87;;;21.40;99.90;;;;;;5057006;28;20215;-89
2022/05/14 07:24:18;;;;;;;8.87;3.03;;;22.60;99.90;;;;;;5057493;28;20448;-79
2022/05/14 07:26:45;;;;;;;9.50;2.80;;;22.80;99.90;;;;;;5057635;28;20408;-83
2022/05/14 07:29:14;;;;;;;12.97;3.70;;;22.50;99.90;;;;;;5058512;28;20411;-89
2022/05/14 07:31:40;;;;;;;11.10;3.80;;;22.90;99.90;;;;;;5058140;28;20434;-85
2022/05/14 07:34:06;;;;;;;9.70;3.87;;;23.50;96.80;;;;;;5057806;28;20418;-83
2022/05/14 07:36:38;;;;;;;7.20;3.20;;;23.30;88.70;;;;;;5058325;28;20908;-84
2022/05/14 07:39:05;;;;;;;11.80;3.90;;;23.30;92.50;;;;;;5057445;28;20424;-92
2022/05/14 07:41:32;;;;;;;9.53;3.30;;;21.20;92.00;;;;;;5061505;28;20422;-90
2022/05/14 07:44:03;;;;;;;15.80;4.40;;;20.60;99.90;;;;;;5059584;28;20544;-83
2022/05/14 07:46:32;;;;;;;15.20;4.37;;;19.40;99.90;;;;;;5056667;28;20416;-81
2022/05/14 07:48:59;;;;;;;9.33;3.43;;;20.00;99.90;;;;;;5056567;28;20411;-81
2022/05/14 07:51:25;;;;;;;11.23;3.10;;;20.70;99.90;;;;;;5056562;28;20405;-82
2022/05/14 07:53:52;;;;;;;16.43;3.17;;;20.90;99.90;;;;;;5056547;28;20557;-82
2022/05/14 07:56:18;;;;;;;10.77;3.27;;;21.90;99.90;;;;;;5057489;28;20484;-82
2022/05/14 07:58:44;;;;;;;10.70;3.20;;;23.50;99.90;;;;;;5057181;28;20890;-81
2022/05/14 08:01:11;;;;;;;8.37;3.00;;;22.50;91.00;;;;;;5056809;28;20177;-82
2022/05/14 08:03:36;;;;;;;7.00;2.33;;;22.40;99.90;;;;;;5056345;28;20423;-85
2022/05/14 08:06:03;;;;;;;6.10;3.00;;;24.10;92.00;;;;;;5057351;28;20424;-81
2022/05/14 08:08:28;;;;;;;10.47;2.70;;;24.40;63.30;;;;;;5057313;28;20204;-85
2022/05/14 08:10:55;;;;;;;10.50;2.70;;;24.20;43.80;;;;;;5057906;28;20416;-86
2022/05/14 08:13:23;;;;;;;5.47;2.40;;;24.40;36.90;;;;;;5056332;28;20252;-82
2022/05/14 08:15:50;;;;;;;10.07;2.80;;;23.40;32.20;;;;;;5056454;28;20471;-84
2022/05/14 08:18:17;;;;;;;9.07;3.00;;;22.70;30.10;;;;;;5056056;28;20419;-81
2022/05/14 08:20:44;;;;;;;5.90;2.37;;;23.70;36.60;;;;;;5038443;28;20527;-81
2022/05/14 08:25:57;;;;;;;11.13;2.57;;;25.30;32.70;;;;;;5057002;28;20439;-82
2022/05/14 08:28:23;;;;;;;5.87;2.10;;;25.40;23.20;;;;;;5057076;28;20435;-82
2022/05/14 08:30:49;;;;;;;12.20;3.97;;;24.80;15.40;;;;;;5058109;28;20413;-84
2022/05/14 08:33:14;;;;;;;8.27;2.13;;;22.40;8.90;;;;;;5057744;28;20911;-82
2022/05/14 08:35:42;;;;;;;8.67;1.83;;;21.20;19.20;;;;;;5057434;28;20212;-86
2022/05/14 08:38:11;;;;;;;8.03;2.20;;;22.20;31.30;;;;;;5057675;28;20166;-85
2022/05/14 08:40:44;;;;;;;6.57;1.73;;;21.10;18.40;;;;;;5057916;28;20411;-84
2022/05/14 08:43:21;;;;;;;7.23;1.80;;;20.10;41.30;;;;;;5052335;28;20467;-84
2022/05/14 08:45:50;;;;;;;14.27;2.60;;;20.30;67.10;;;;;;5055724;28;20434;-83
2022/05/14 08:48:36;;;;;;;9.60;3.00;;;22.80;50.60;;;;;;5070871;28;20905;-82
2022/05/14 08:51:14;;;;;;;6.83;2.50;;;21.20;23.40;;;;;;5075346;28;20927;-83
2022/05/14 08:53:42;;;;;;;11.70;3.40;;;20.50;43.40;;;;;;5075474;28;20874;-85
2022/05/14 08:56:24;;;;;;;7.20;2.03;;;19.60;52.80;;;;;;5075068;28;20821;-83
2022/05/14 08:59:16;;;;;;;8.57;2.17;;;19.60;99.90;;;;;;5074994;28;20417;-83
2022/05/14 09:01:44;;;;;;;10.17;2.40;;;21.10;56.90;;;;;;5074848;28;20482;-82
2022/05/14 09:04:17;;;;;;;10.97;2.30;;;22.70;38.10;;;;;;5075264;28;20405;-83
2022/05/14 09:06:43;;;;;;;6.10;1.43;;;21.80;29.50;;;;;;5057281;28;20490;-84
2022/05/14 09:09:14;;;;;;;4.83;1.60;;;22.30;24.20;;;;;;5075167;28;20442;-85
2022/05/14 09:12:17;;;;;;;8.70;1.93;;;20.40;17.90;;;;;;5074864;28;20413;-85
2022/05/14 09:14:45;;;;;;;5.33;1.90;;;20.10;46.30;;;;;;4974302;28;20524;-90
2022/05/14 09:17:15;;;;;;;5.57;1.83;;;22.20;34.30;;;;;;5056746;28;20439;-85
2022/05/14 09:19:43;;;;;;;9.27;2.40;;;23.40;26.00;;;;;;5074658;28;20477;-87
2022/05/14 09:22:30;;;;;;;7.60;1.40;;;22.70;19.50;;;;;;5075309;28;20399;-86
2022/05/14 09:24:58;;;;;;;8.17;1.30;;;21.60;7.70;;;;;;5073430;28;20503;-89
2022/05/14 09:27:51;;;;;;;7.33;2.20;;;20.30;20.10;;;;;;5055833;28;20455;-90
2022/05/14 09:30:39;;;;;;;9.07;2.00;;;21.10;54.40;;;;;;5058200;28;20914;-89
2022/05/14 09:33:27;;;;;;;8.23;1.80;;;21.80;17.20;;;;;;5055899;28;20445;-88
2022/05/14 09:36:05;;;;;;;4.73;1.63;;;20.50;27.80;;;;;;5057608;28;20889;-87
2022/05/14 09:38:33;;;;;;;8.93;2.33;;;19.60;39.80;;;;;;5041109;28;20800;-90
2022/05/14 09:41:22;;;;;;;5.70;1.97;;;19.30;49.20;;;;;;5052632;28;20471;-88
2022/05/14 09:43:52;;;;;;;6.17;1.80;;;18.90;53.70;;;;;;5052478;28;20484;-88
2022/05/14 09:46:32;;;;;;;9.00;2.37;;;19.20;81.80;;;;;;5053246;28;20431;-88
2022/05/14 09:49:06;;;;;;;7.20;1.50;;;20.20;85.70;;;;;;5052124;28;20961;-90
2022/05/14 09:51:44;;;;;;;9.87;2.53;;;22.30;34.60;;;;;;5053510;28;20420;-91
2022/05/14 09:54:27;;;;;;;7.33;2.60;;;20.90;38.10;;;;;;5051640;28;20836;-89
2022/05/14 09:57:30;;;;;;;4.80;1.60;;;20.20;46.80;;;;;;5053535;28;20425;-82
2022/05/14 10:00:08;;;;;;;6.97;1.83;;;19.40;64.50;;;;;;5062994;28;20401;-84
2022/05/14 10:02:42;;;;;;;7.23;2.73;;;19.60;86.70;;;;;;5055909;28;20785;-83
2022/05/14 10:05:39;;;;;;;7.90;2.57;;;19.80;99.90;;;;;;5053408;28;20423;-90
2022/05/14 10:08:21;;;;;;;5.83;1.47;;;19.50;78.90;;;;;;5052053;28;20500;-86
2022/05/14 10:11:07;;;;;;;11.53;2.33;;;18.80;99.30;;;;;;5052551;28;20408;-87
2022/05/14 10:13:50;;;;;;;7.20;1.73;;;18.80;99.90;;;;;;5053265;28;20422;-83
2022/05/14 10:16:36;;;;;;;7.33;2.10;;;19.40;86.40;;;;;;5051158;28;20975;-85
2022/05/14 10:19:22;;;;;;;6.47;1.70;;;19.50;99.90;;;;;;5054012;28;20412;-88
2022/05/14 10:22:24;;;;;;;3.43;1.10;;;19.10;99.90;;;;;;5056728;28;20422;-93
2022/05/14 10:28:32;;;;;;;5.00;2.10;;;18.50;99.90;;;;;;5073638;28;20417;-93
2022/05/14 10:31:24;;;;;;;3.63;1.10;;;18.70;99.90;;;;;;4957298;28;20445;-94
2022/05/14 10:33:54;;;;;;;6.50;1.63;;;19.20;99.90;;;;;;5052956;28;20428;-88
2022/05/14 10:36:29;;;;;;;8.33;1.53;;;19.40;99.90;;;;;;5059905;28;20452;-87
2022/05/14 10:39:21;;;;;;;5.07;1.20;;;19.30;91.30;;;;;;5074570;28;20414;-89
2022/05/14 10:41:51;;;;;;;5.80;2.30;;;19.00;91.80;;;;;;5055302;28;20440;-93
2022/05/14 10:44:26;;;;;;;7.57;1.70;;;18.60;88.00;;;;;;5054061;28;20475;-93
2022/05/14 10:47:03;;;;;;;3.27;0.60;;;18.60;99.90;;;;;;5055560;28;20593;-91
2022/05/14 10:49:33;;;;;;;7.53;1.87;;;18.90;96.10;;;;;;5054618;28;20444;-88
2022/05/14 10:52:00;;;;;;;6.33;1.80;;;19.00;91.50;;;;;;5056009;28;20405;-85
2022/05/14 10:54:26;;;;;;;7.50;1.73;;;19.50;85.50;;;;;;5055392;28;20784;-91
2022/05/14 10:57:17;;;;;;;11.33;1.70;;;19.40;72.90;;;;;;5053777;28;20425;-87
2022/05/14 10:59:46;;;;;;;7.60;1.50;;;19.20;81.00;;;;;;5054819;28;20419;-95
2022/05/14 11:02:21;;;;;;;7.30;1.77;;;18.70;90.90;;;;;;5075388;28;20410;-93
2022/05/14 11:04:51;;;;;;;7.60;1.50;;;18.70;92.40;;;;;;5075756;28;20456;-91
2022/05/14 11:07:30;;;;;;;5.33;1.50;;;19.00;93.10;;;;;;5077904;28;20472;-96
2022/05/14 11:10:31;;;;;;;9.50;2.20;;;19.20;78.10;;;;;;5073334;28;20424;-94
2022/05/14 11:13:12;;;;;;;5.33;1.43;;;19.40;74.70;;;;;;5073622;28;20409;-92
2022/05/14 11:15:57;;;;;;;6.83;1.73;;;19.40;75.60;;;;;;5073590;28;20470;-92
2022/05/14 11:18:23;;;;;;;6.63;1.83;;;19.60;90.00;;;;;;5058764;28;20504;-87
2022/05/14 11:20:55;;;;;;;6.40;1.30;;;19.70;65.30;;;;;;5054402;28;20461;-92
2022/05/14 11:23:21;;;;;;;6.07;1.20;;;19.60;75.20;;;;;;5072388;28;20314;-95
2022/05/14 11:25:48;;;;;;;7.87;2.30;;;19.50;65.70;;;;;;5074040;28;20423;-93
2022/05/14 11:28:16;;;;;;;5.90;1.00;;;19.30;70.10;;;;;;5075062;28;20418;-93
2022/05/14 11:30:44;;;;;;;7.43;1.23;;;19.00;83.50;;;;;;5075435;28;20449;-89
2022/05/14 11:33:23;;;;;;;7.83;1.23;;;18.80;99.90;;;;;;5077034;28;20457;-90
2022/05/14 11:35:51;;;;;;;5.30;1.40;;;18.70;92.30;;;;;;5075064;28;20465;-84
2022/05/14 11:38:35;;;;;;;7.80;1.20;;;19.40;92.20;;;;;;5074881;28;20910;-91
2022/05/14 11:41:07;;;;;;;7.67;2.67;;;21.40;57.00;;;;;;5075235;28;20418;-89
2022/05/14 11:43:48;;;;;;;7.17;1.60;;;21.50;36.60;;;;;;5076244;28;20457;-89
2022/05/14 11:46:50;;;;;;;6.87;2.37;;;21.00;25.60;;;;;;5074093;28;20472;-84
2022/05/14 11:49:27;;;;;;;5.10;1.43;;;20.30;32.50;;;;;;5071678;28;20444;-82
2022/05/14 11:52:16;;;;;;;5.50;2.77;;;20.10;38.00;;;;;;5064428;28;20453;-83
2022/05/14 11:54:58;;;;;;;10.30;2.10;;;20.00;71.30;;;;;;5063505;28;20478;-83
2022/05/14 11:57:47;;;;;;;5.67;2.20;;;19.90;88.00;;;;;;5063365;28;20402;-84
2022/05/14 12:00:27;;;;;;;8.57;2.00;;;19.50;78.40;;;;;;5066783;28;20422;-82
2022/05/14 12:03:07;;;;;;;7.80;2.03;;;19.20;96.10;;;;;;5062718;28;20427;-83
2022/05/14 12:05:45;;;;;;;6.10;2.47;;;19.00;99.90;;;;;;5060183;28;20480;-82
2022/05/14 12:08:37;;;;;;;8.00;1.83;;;19.20;99.90;;;;;;5061523;28;20913;-82
2022/05/14 12:11:38;;;;;;;4.60;2.43;;;19.90;99.20;;;;;;5059488;28;20502;-85
2022/05/14 12:14:17;;;;;;;9.10;1.40;;;20.30;59.40;;;;;;4957373;28;20513;-83
2022/05/14 12:16:51;;;;;;;5.37;1.00;;;19.90;44.10;;;;;;5044785;28;20453;-83
2022/05/14 12:19:22;;;;;;;5.20;1.40;;;20.00;55.60;;;;;;5057926;28;20950;-83
2022/05/14 12:21:54;;;;;;;9.63;1.63;;;19.70;37.20;;;;;;5056912;28;20874;-87
2022/05/14 12:24:24;;;;;;;9.37;1.83;;;19.50;42.20;;;;;;5056897;28;20418;-84
2022/05/14 12:26:50;;;;;;;5.17;0.97;;;19.40;59.80;;;;;;5056593;28;20510;-85
2022/05/14 12:29:23;;;;;;;7.37;1.70;;;19.40;53.00;;;;;;5056982;28;20467;-83
2022/05/14 12:34:47;;;;;;;6.97;1.50;;;20.30;56.50;;;;;;5077864;28;20493;-82
2022/05/14 12:37:21;;;;;;;4.80;1.50;;;21.50;40.00;;;;;;5077989;28;20427;-84
2022/05/14 12:39:50;;;;;;;6.53;1.67;;;21.10;17.20;;;;;;5043329;28;20414;-83
2022/05/14 12:42:33;;;;;;;7.80;1.90;;;20.90;21.20;;;;;;5080230;28;20408;-88
2022/05/14 12:44:59;;;;;;;5.13;1.80;;;20.90;24.70;;;;;;5077975;28;20549;-96
2022/05/14 12:47:28;;;;;;;5.60;1.73;;;22.20;30.30;;;;;;5076765;28;20493;-84
2022/05/14 12:49:55;;;;;;;6.43;1.90;;;22.60;25.50;;;;;;5074762;28;20461;-83
2022/05/14 12:52:29;;;;;;;7.60;2.33;;;21.40;12.50;;;;;;5074380;28;20959;-83
2022/05/14 12:55:12;;;;;;;8.33;2.00;;;20.70;19.30;;;;;;5075954;28;20470;-92
2022/05/14 12:57:39;;;;;;;5.43;2.13;;;20.50;19.40;;;;;;5077389;28;20472;-83
2022/05/14 13:00:07;;;;;;;5.50;1.90;;;20.40;25.00;;;;;;5076025;28;20792;-83
2022/05/14 13:02:40;;;;;;;6.40;1.90;;;20.20;22.60;;;;;;5074796;28;20414;-85
2022/05/14 13:05:18;;;;;;;8.60;1.83;;;19.90;23.80;;;;;;5075571;28;20427;-83
2022/05/14 13:07:59;;;;;;;9.10;1.90;;;20.00;24.20;;;;;;5075798;28;20467;-81
2022/05/14 13:10:27;;;;;;;5.50;1.77;;;20.60;27.60;;;;;;5075880;28;20405;-92
2022/05/14 13:12:56;;;;;;;6.27;1.97;;;21.10;20.20;;;;;;5075640;28;20917;-91
2022/05/14 13:15:35;;;;;;;3.93;1.53;;;20.70;20.90;;;;;;5074870;28;20468;-85
2022/05/14 13:18:23;;;;;;;3.43;1.17;;;20.50;29.00;;;;;;5074491;28;20427;-83
2022/05/14 13:21:03;;;;;;;5.47;1.40;;;20.30;35.30;;;;;;5074388;28;20425;-93
2022/05/14 13:23:29;;;;;;;9.30;3.17;;;20.60;35.10;;;;;;5074994;28;20474;-82